Time;durP1;ratioP1;P1;durP2;ratioP2;P2;SDS_P1;SDS_P2;PMS_P1;PMS_P2;Temp;Humidity;BMP_temperature;BMP_pressure;BME280_temperature;BME280_humidity;BME280_pressure;Samples;Min_cycle;Max_cycle;Signal;HPM_P1;HPM_P2
2024/03/07 00:01:00;;;;;;;9.40;7.10;;;;;;;1.56;98.28;97019.55;109161;1271;25397;-73
2024/03/07 00:03:41;;;;;;;8.00;6.40;;;;;;;1.56;98.43;97016.89;109148;1272;22561;-73
2024/03/07 00:06:12;;;;;;;8.70;6.10;;;;;;;1.53;98.26;97020.25;109203;1270;22551;-73
2024/03/07 00:08:44;;;;;;;8.70;6.00;;;;;;;1.46;98.05;97017.48;109133;1271;25248;-73
2024/03/07 00:11:15;;;;;;;7.50;6.00;;;;;;;1.42;98.24;97018.90;109136;1266;22559;-73
2024/03/07 00:13:46;;;;;;;7.60;6.00;;;;;;;1.39;98.16;97015.73;109095;1272;30168;-73
2024/03/07 00:16:22;;;;;;;7.00;5.30;;;;;;;1.40;98.30;97015.85;109125;1272;22557;-73
2024/03/07 00:18:56;;;;;;;8.20;6.30;;;;;;;1.42;98.47;97015.29;109084;1266;22534;-73
2024/03/07 00:21:27;;;;;;;7.60;5.40;;;;;;;1.43;98.32;97013.11;109103;1272;22547;-73
2024/03/07 00:23:59;;;;;;;7.40;4.90;;;;;;;1.41;98.35;97014.17;109139;1269;22567;-73
2024/03/07 00:26:30;;;;;;;6.30;4.70;;;;;;;1.42;98.48;97010.55;109146;1272;22582;-73
2024/03/07 00:29:05;;;;;;;5.80;4.80;;;;;;;1.43;98.41;97008.73;109071;1273;22536;-73
2024/03/07 00:31:38;;;;;;;7.80;5.10;;;;;;;1.45;98.38;97007.04;109099;1262;22562;-73
2024/03/07 00:34:13;;;;;;;6.80;4.90;;;;;;;1.48;98.60;97007.70;109092;1266;22894;-73
2024/03/07 00:36:45;;;;;;;7.40;5.90;;;;;;;1.48;98.62;97011.27;109113;1271;22512;-73
2024/03/07 00:39:16;;;;;;;7.50;5.80;;;;;;;1.50;98.47;97007.59;109036;1272;22465;-73
2024/03/07 00:41:47;;;;;;;7.40;6.10;;;;;;;1.52;98.36;97005.21;109131;1272;25414;-73
2024/03/07 00:44:20;;;;;;;7.70;6.00;;;;;;;1.54;98.38;97008.13;109087;1271;22632;-73
2024/03/07 00:46:53;;;;;;;8.20;5.80;;;;;;;1.51;98.19;97003.77;109085;1269;24398;-73
2024/03/07 00:49:28;;;;;;;7.70;5.30;;;;;;;1.50;98.19;97005.14;109145;1269;23686;-73
2024/03/07 00:52:00;;;;;;;8.50;5.90;;;;;;;1.48;98.06;97001.34;109158;1272;23262;-73
2024/03/07 00:54:36;;;;;;;6.70;4.90;;;;;;;1.48;97.87;97006.96;109063;1269;22569;-73
2024/03/07 00:57:15;;;;;;;7.00;5.90;;;;;;;1.46;98.11;97004.24;109167;1272;23761;-73
2024/03/07 00:59:56;;;;;;;9.10;6.40;;;;;;;1.47;98.22;97006.36;109163;1266;22540;-74
2024/03/07 01:02:29;;;;;;;8.30;6.50;;;;;;;1.48;98.20;97005.96;109194;1271;22512;-73
2024/03/07 01:05:01;;;;;;;9.00;6.60;;;;;;;1.48;98.14;97002.99;109075;1269;22567;-73
2024/03/07 01:07:34;;;;;;;9.90;7.10;;;;;;;1.46;98.16;97000.00;109148;1272;22600;-73
2024/03/07 01:10:09;;;;;;;7.50;6.00;;;;;;;1.46;98.11;96996.93;109169;1270;22811;-73
2024/03/07 01:12:44;;;;;;;6.90;5.30;;;;;;;1.47;98.23;96997.53;109093;1272;24074;-74
2024/03/07 01:15:19;;;;;;;6.80;5.20;;;;;;;1.49;98.09;96996.42;109133;1269;22589;-73
2024/03/07 01:17:52;;;;;;;7.20;5.40;;;;;;;1.49;98.12;96994.82;109128;1266;22567;-74
2024/03/07 01:20:25;;;;;;;6.70;5.10;;;;;;;1.47;98.14;96994.67;109130;1272;22519;-73
2024/03/07 01:22:57;;;;;;;8.40;6.20;;;;;;;1.47;98.20;96994.96;109060;1272;22532;-74
2024/03/07 01:25:33;;;;;;;8.10;5.80;;;;;;;1.44;98.04;96992.89;109146;1272;22452;-73
2024/03/07 01:28:07;;;;;;;8.30;5.90;;;;;;;1.42;98.01;96998.05;109138;1269;22532;-74
2024/03/07 01:30:38;;;;;;;8.60;6.10;;;;;;;1.39;97.88;96995.59;109123;1272;22531;-74
2024/03/07 01:33:12;;;;;;;7.50;5.50;;;;;;;1.41;97.96;96997.66;109090;1270;22521;-74
2024/03/07 01:35:43;;;;;;;10.10;7.00;;;;;;;1.42;98.02;96993.23;109102;1272;24220;-73
2024/03/07 01:38:25;;;;;;;10.60;8.20;;;;;;;1.42;98.05;96989.73;109127;1266;22522;-74
2024/03/07 01:40:59;;;;;;;10.90;7.80;;;;;;;1.43;98.09;96987.88;109090;1272;24894;-73
2024/03/07 01:43:33;;;;;;;11.00;8.10;;;;;;;1.43;98.09;96992.38;109082;1272;22552;-73
2024/03/07 01:46:14;;;;;;;10.00;7.60;;;;;;;1.41;98.09;96993.11;109113;1270;22624;-73
2024/03/07 01:48:46;;;;;;;10.80;7.80;;;;;;;1.39;97.97;96993.08;109105;1270;22513;-74
2024/03/07 01:51:23;;;;;;;11.00;8.10;;;;;;;1.39;97.90;96995.77;109085;1270;22508;-74
2024/03/07 01:53:55;;;;;;;12.30;8.60;;;;;;;1.40;98.15;96998.09;109126;1272;24079;-73
2024/03/07 01:56:27;;;;;;;12.20;8.60;;;;;;;1.38;97.96;96991.42;109122;1266;23174;-74
2024/03/07 01:59:05;;;;;;;12.70;9.60;;;;;;;1.36;97.81;96993.77;109130;1266;22558;-73
2024/03/07 02:01:43;;;;;;;13.10;8.00;;;;;;;1.32;97.79;96991.60;109176;1266;22504;-74
2024/03/07 02:04:15;;;;;;;10.90;7.80;;;;;;;1.33;97.85;96991.55;109090;1269;22591;-74
2024/03/07 02:06:53;;;;;;;10.50;8.20;;;;;;;1.31;97.77;96988.75;109112;1272;22534;-74
2024/03/07 02:09:31;;;;;;;9.40;7.30;;;;;;;1.30;97.99;96988.23;109034;1272;25415;-74
2024/03/07 02:12:06;;;;;;;10.80;7.90;;;;;;;1.33;97.95;96987.65;109177;1269;23858;-74
2024/03/07 02:14:37;;;;;;;10.80;8.10;;;;;;;1.33;97.99;96984.72;109125;1268;22582;-73
2024/03/07 02:17:11;;;;;;;12.70;9.20;;;;;;;1.33;97.78;96979.45;109122;1267;23953;-74
2024/03/07 02:19:49;;;;;;;11.40;8.40;;;;;;;1.30;97.85;96980.08;109138;1266;22545;-73
2024/03/07 02:22:26;;;;;;;11.00;8.70;;;;;;;1.28;97.84;96984.38;109142;1269;24183;-73
2024/03/07 02:24:59;;;;;;;11.00;8.20;;;;;;;1.25;97.56;96981.50;109072;1266;48543;-73
2024/03/07 02:27:32;;;;;;;13.60;9.70;;;;;;;1.23;97.74;96980.50;109080;1270;25440;-74
2024/03/07 02:30:09;;;;;;;12.00;8.90;;;;;;;1.22;97.79;96981.84;109158;1266;22629;-73
2024/03/07 02:32:51;;;;;;;14.60;10.20;;;;;;;1.24;97.89;96982.88;109203;1272;24189;-73
2024/03/07 02:35:23;;;;;;;12.00;9.50;;;;;;;1.20;97.70;96980.17;109132;1256;26103;-74
2024/03/07 02:37:55;;;;;;;13.20;9.40;;;;;;;1.18;97.90;96981.06;109064;1272;24174;-74
2024/03/07 02:40:39;;;;;;;13.50;8.70;;;;;;;1.22;98.07;96978.59;109154;1272;24312;-73
2024/03/07 02:43:15;;;;;;;10.50;8.60;;;;;;;1.25;97.95;96981.26;109141;1272;23462;-74
2024/03/07 02:45:49;;;;;;;11.80;8.70;;;;;;;1.25;97.98;96978.33;109167;1271;22490;-74
2024/03/07 02:48:25;;;;;;;12.90;10.30;;;;;;;1.24;98.01;96978.29;109123;1272;22558;-74
2024/03/07 02:50:56;;;;;;;14.50;10.80;;;;;;;1.21;98.00;96974.30;109157;1270;24239;-73
2024/03/07 02:53:30;;;;;;;12.40;9.70;;;;;;;1.24;98.16;96975.67;109131;1266;22999;-73
2024/03/07 02:56:07;;;;;;;12.40;9.80;;;;;;;1.22;97.99;96975.45;109083;1272;22682;-73
2024/03/07 02:58:41;;;;;;;13.10;9.80;;;;;;;1.18;97.83;96979.33;109159;1270;22511;-73
2024/03/07 03:01:17;;;;;;;14.00;9.50;;;;;;;1.11;97.67;96976.02;109198;1266;22507;-74
2024/03/07 03:03:52;;;;;;;13.50;9.50;;;;;;;1.08;97.75;96979.30;109130;1266;25369;-74
2024/03/07 03:06:25;;;;;;;13.50;10.20;;;;;;;1.06;97.82;96980.36;109122;1272;22568;-74
2024/03/07 03:08:59;;;;;;;14.70;11.20;;;;;;;1.06;98.07;96980.84;109183;1266;22544;-73
2024/03/07 03:11:32;;;;;;;10.80;8.20;;;;;;;1.07;98.14;96985.77;109084;1266;23855;-73
2024/03/07 03:14:07;;;;;;;12.50;9.50;;;;;;;1.05;98.09;96985.39;109150;1272;24264;-73
2024/03/07 03:16:42;;;;;;;11.80;8.80;;;;;;;1.07;98.10;96987.02;109124;1272;24148;-73
2024/03/07 03:19:13;;;;;;;12.90;8.90;;;;;;;1.10;98.19;96984.66;109168;1272;22592;-74
2024/03/07 03:21:45;;;;;;;12.70;9.80;;;;;;;1.10;98.17;96982.10;109191;1266;22570;-73
2024/03/07 03:24:18;;;;;;;16.10;11.60;;;;;;;1.09;98.14;96985.84;109119;1269;22504;-73
2024/03/07 03:26:48;;;;;;;14.60;11.40;;;;;;;1.09;98.19;96982.95;109087;1272;22518;-74
2024/03/07 03:29:22;;;;;;;16.40;11.70;;;;;;;1.10;98.42;96982.38;109138;1271;24158;-74
2024/03/07 03:31:56;;;;;;;17.90;12.40;;;;;;;1.08;98.37;96984.48;109117;1272;22518;-73
2024/03/07 03:34:31;;;;;;;16.00;11.40;;;;;;;1.06;98.30;96982.73;109132;1266;22504;-73
2024/03/07 03:37:05;;;;;;;16.60;12.20;;;;;;;1.07;98.33;96988.02;109138;1267;22456;-74
2024/03/07 03:39:38;;;;;;;21.00;14.80;;;;;;;1.07;98.32;96987.70;109088;1272;22547;-74
2024/03/07 03:42:12;;;;;;;19.90;13.60;;;;;;;1.01;97.97;96983.52;109077;1272;23843;-73
2024/03/07 03:44:45;;;;;;;19.30;13.30;;;;;;;0.97;98.16;96989.91;109122;1266;22462;-73
2024/03/07 03:47:19;;;;;;;20.10;13.50;;;;;;;0.96;98.08;96985.70;109114;1272;22549;-73
2024/03/07 03:49:51;;;;;;;20.50;14.40;;;;;;;0.96;98.32;96985.10;109065;1272;22517;-73
2024/03/07 03:52:22;;;;;;;19.60;14.00;;;;;;;0.95;98.19;96985.91;109086;1266;22557;-73
2024/03/07 03:54:56;;;;;;;19.30;13.00;;;;;;;0.93;98.33;96988.05;109042;1271;22477;-73
2024/03/07 03:57:29;;;;;;;20.50;14.80;;;;;;;0.91;98.36;96985.62;109049;1272;24475;-73
2024/03/07 04:00:09;;;;;;;20.00;12.90;;;;;;;0.88;98.12;96983.46;109140;1266;23203;-74
2024/03/07 04:02:47;;;;;;;19.40;12.80;;;;;;;0.89;98.15;96984.78;109138;1269;22644;-73
2024/03/07 04:05:21;;;;;;;20.00;13.80;;;;;;;0.90;98.45;96985.61;109085;1272;23416;-73
2024/03/07 04:07:53;;;;;;;21.80;14.40;;;;;;;0.91;98.56;96983.92;109094;1266;24186;-73
2024/03/07 04:10:29;;;;;;;20.10;13.50;;;;;;;0.89;98.51;96982.65;109186;1249;25418;-73
2024/03/07 04:13:05;;;;;;;21.50;14.20;;;;;;;0.86;98.24;96985.05;109130;1266;25407;-73
2024/03/07 04:15:38;;;;;;;22.40;15.10;;;;;;;0.85;98.39;96984.12;109149;1272;25421;-73
2024/03/07 04:18:10;;;;;;;23.50;15.50;;;;;;;0.84;98.57;96984.79;109124;1272;22533;-73
2024/03/07 04:20:44;;;;;;;27.10;17.60;;;;;;;0.80;98.13;96986.45;109150;1272;23832;-73
2024/03/07 04:23:20;;;;;;;26.30;16.50;;;;;;;0.79;98.28;96989.31;109135;1271;24187;-73
2024/03/07 04:25:52;;;;;;;22.90;15.70;;;;;;;0.78;98.24;96992.41;109075;1266;22511;-73
2024/03/07 04:28:24;;;;;;;22.50;15.60;;;;;;;0.77;98.67;96992.45;109111;1266;22808;-73
2024/03/07 04:30:55;;;;;;;23.10;15.50;;;;;;;0.77;98.54;96992.66;109158;1251;22939;-73
2024/03/07 04:33:32;;;;;;;25.70;17.80;;;;;;;0.76;98.50;96994.55;109064;1269;22491;-73
2024/03/07 04:36:08;;;;;;;30.40;18.80;;;;;;;0.74;98.40;96992.18;109136;1272;22634;-73
2024/03/07 04:38:44;;;;;;;25.90;17.10;;;;;;;0.72;98.47;96991.39;109111;1272;22549;-73
2024/03/07 04:41:19;;;;;;;30.30;18.10;;;;;;;0.73;98.61;96992.08;109075;1269;22504;-73
2024/03/07 04:43:54;;;;;;;30.00;19.20;;;;;;;0.71;98.56;96992.44;109051;1272;22472;-73
2024/03/07 04:46:28;;;;;;;29.40;19.10;;;;;;;0.70;98.90;96994.11;109086;1272;22527;-73
2024/03/07 04:48:59;;;;;;;28.20;18.80;;;;;;;0.71;98.95;96995.41;109142;1271;22528;-73
2024/03/07 04:51:32;;;;;;;31.00;19.70;;;;;;;0.72;99.19;96998.27;108939;1272;204858;-73
2024/03/07 04:54:08;;;;;;;31.20;20.50;;;;;;;0.71;98.91;96994.05;109052;1272;22475;-73
2024/03/07 04:56:41;;;;;;;28.90;18.90;;;;;;;0.69;99.07;96995.96;109122;1266;22842;-73
2024/03/07 04:59:15;;;;;;;30.40;19.00;;;;;;;0.71;99.08;96995.96;109112;1272;22794;-73
2024/03/07 05:01:49;;;;;;;29.90;19.40;;;;;;;0.73;99.25;97003.88;109158;1272;22508;-73
2024/03/07 05:04:24;;;;;;;32.40;21.50;;;;;;;0.75;99.28;96999.41;109102;1272;25939;-73
2024/03/07 05:06:58;;;;;;;33.60;20.80;;;;;;;0.73;99.36;96998.90;109151;1271;22495;-73
2024/03/07 05:09:34;;;;;;;32.00;20.70;;;;;;;0.73;99.17;96997.58;109104;1269;25418;-73
2024/03/07 05:12:09;;;;;;;30.60;20.30;;;;;;;0.71;99.03;97003.08;109201;1272;22518;-73
2024/03/07 05:14:42;;;;;;;33.40;21.90;;;;;;;0.69;99.16;97006.48;109130;1250;25437;-73
2024/03/07 05:17:13;;;;;;;37.10;22.10;;;;;;;0.70;99.21;97006.52;109111;1250;22507;-73
2024/03/07 05:19:47;;;;;;;35.50;22.40;;;;;;;0.71;99.45;97007.93;109158;1272;22526;-74
2024/03/07 05:22:25;;;;;;;33.90;22.10;;;;;;;0.71;99.43;97011.59;109095;1272;25420;-73
2024/03/07 05:24:59;;;;;;;31.60;20.40;;;;;;;0.70;99.24;97014.88;109118;1270;22448;-73
2024/03/07 05:27:33;;;;;;;34.90;22.00;;;;;;;0.68;99.22;97016.11;109092;1272;25233;-73
2024/03/07 05:30:15;;;;;;;35.50;23.40;;;;;;;0.67;99.24;97017.58;109049;1269;22521;-73
2024/03/07 05:32:49;;;;;;;32.40;19.90;;;;;;;0.63;99.15;97022.05;109123;1269;24191;-73
2024/03/07 05:35:23;;;;;;;30.30;21.50;;;;;;;0.63;99.31;97027.50;109087;1272;22583;-73
2024/03/07 05:37:57;;;;;;;33.50;20.70;;;;;;;0.63;99.30;97022.65;109114;1269;22539;-73
2024/03/07 05:40:33;;;;;;;31.20;20.60;;;;;;;0.62;99.43;97020.61;109124;1272;25414;-73
2024/03/07 05:43:09;;;;;;;40.20;25.80;;;;;;;0.59;99.43;97024.42;109125;1266;22531;-72
2024/03/07 05:45:43;;;;;;;32.40;21.90;;;;;;;0.58;99.58;97029.09;109152;1272;22463;-72
2024/03/07 05:48:20;;;;;;;33.30;21.70;;;;;;;0.58;99.45;97029.48;109093;1272;22558;-72
2024/03/07 05:50:52;;;;;;;35.00;22.90;;;;;;;0.57;99.63;97030.61;109122;1269;24215;-73
2024/03/07 05:53:28;;;;;;;35.60;23.90;;;;;;;0.59;99.45;97029.28;109091;1266;22515;-72
2024/03/07 05:56:03;;;;;;;38.30;25.60;;;;;;;0.58;99.65;97027.88;109113;1270;23669;-72
2024/03/07 05:58:42;;;;;;;35.00;22.40;;;;;;;0.59;99.82;97031.58;109178;1266;26086;-72
2024/03/07 06:01:13;;;;;;;38.10;23.10;;;;;;;0.61;99.74;97038.51;109164;1272;22636;-72
2024/03/07 06:03:44;;;;;;;32.20;20.80;;;;;;;0.65;99.88;97033.36;109086;1266;23397;-73
2024/03/07 06:06:18;;;;;;;37.20;24.80;;;;;;;0.65;99.87;97030.50;109335;1266;22559;-73
2024/03/07 06:08:57;;;;;;;38.70;23.30;;;;;;;0.64;99.46;97034.08;109288;1272;24208;-72
2024/03/07 06:11:33;;;;;;;41.20;26.20;;;;;;;0.61;99.71;97033.58;109235;1266;22567;-72
2024/03/07 06:14:05;;;;;;;42.30;25.40;;;;;;;0.61;99.57;97040.48;109174;1266;22523;-72
2024/03/07 06:16:41;;;;;;;38.70;23.90;;;;;;;0.61;99.46;97046.86;109258;1267;22548;-73
2024/03/07 06:19:14;;;;;;;42.80;28.00;;;;;;;0.59;99.36;97047.63;109142;1272;22552;-72
2024/03/07 06:21:48;;;;;;;45.40;26.30;;;;;;;0.57;99.32;97050.64;109155;1272;22511;-72
2024/03/07 06:24:21;;;;;;;41.70;25.60;;;;;;;0.49;99.11;97052.05;109118;1272;23253;-72
2024/03/07 06:27:03;;;;;;;42.60;26.20;;;;;;;0.42;99.09;97054.39;109136;1249;22523;-72
2024/03/07 06:29:36;;;;;;;42.80;26.30;;;;;;;0.36;99.20;97054.31;109103;1271;22451;-72
2024/03/07 06:32:11;;;;;;;40.90;26.00;;;;;;;0.36;99.49;97056.12;109105;1272;22465;-73
2024/03/07 06:34:45;;;;;;;45.50;27.50;;;;;;;0.37;99.79;97058.20;109123;1272;22566;-73
2024/03/07 06:37:18;;;;;;;45.80;26.50;;;;;;;0.38;99.78;97058.48;109168;1250;25258;-72
2024/03/07 06:39:50;;;;;;;41.10;24.60;;;;;;;0.39;99.84;97058.20;109128;1272;22774;-73
2024/03/07 06:42:23;;;;;;;46.00;26.00;;;;;;;0.42;99.93;97054.05;109117;1269;23056;-73
2024/03/07 06:44:57;;;;;;;46.60;27.30;;;;;;;0.42;99.90;97054.77;109098;1272;22646;-73
2024/03/07 06:47:31;;;;;;;47.50;27.60;;;;;;;0.40;99.76;97058.07;109097;1271;22837;-73
2024/03/07 06:50:04;;;;;;;45.30;26.10;;;;;;;0.42;99.97;97061.64;109114;1270;22507;-73
2024/03/07 06:52:35;;;;;;;46.20;26.70;;;;;;;0.45;99.84;97064.83;109102;1270;22533;-72
2024/03/07 06:55:08;;;;;;;40.80;24.60;;;;;;;0.44;99.94;97061.05;109082;1272;25330;-73
2024/03/07 06:57:41;;;;;;;40.60;23.80;;;;;;;0.44;99.72;97066.64;109134;1266;22545;-73
2024/03/07 07:00:15;;;;;;;49.30;27.80;;;;;;;0.43;99.93;97068.64;109206;1272;24627;-73
2024/03/07 07:02:47;;;;;;;50.10;27.70;;;;;;;0.45;99.92;97067.71;109163;1269;22549;-72
2024/03/07 07:05:23;;;;;;;49.60;26.30;;;;;;;0.46;99.99;97071.48;109228;1267;22586;-73
2024/03/07 07:07:59;;;;;;;37.90;22.90;;;;;;;0.45;99.81;97075.13;109083;1269;22572;-73
2024/03/07 07:10:32;;;;;;;49.70;25.50;;;;;;;0.43;99.82;97079.35;109091;1266;23995;-73
2024/03/07 07:13:10;;;;;;;50.50;27.30;;;;;;;0.39;99.65;97083.55;109158;1269;23843;-73
2024/03/07 07:15:43;;;;;;;48.80;28.10;;;;;;;0.33;99.51;97083.13;109155;1271;25443;-73
2024/03/07 07:18:15;;;;;;;49.50;26.00;;;;;;;0.33;99.70;97085.05;109171;1269;22521;-73
2024/03/07 07:20:47;;;;;;;51.80;28.60;;;;;;;0.30;99.80;97087.83;109126;1267;22709;-73
2024/03/07 07:23:26;;;;;;;48.90;29.40;;;;;;;0.28;99.61;97090.86;109153;1271;22513;-73
2024/03/07 07:25:57;;;;;;;47.80;28.20;;;;;;;0.30;99.92;97093.20;109094;1272;22549;-73
2024/03/07 07:28:28;;;;;;;45.40;25.40;;;;;;;0.31;99.97;97090.11;109094;1272;22510;-72
2024/03/07 07:31:03;;;;;;;47.20;28.00;;;;;;;0.33;99.89;97084.89;109091;1271;25511;-73
2024/03/07 07:33:41;;;;;;;51.90;28.30;;;;;;;0.34;100.00;97082.48;109033;1272;22515;-73
2024/03/07 07:36:13;;;;;;;51.90;29.80;;;;;;;0.35;100.00;97086.70;109124;1272;22519;-73
2024/03/07 07:38:51;;;;;;;46.60;26.30;;;;;;;0.36;99.95;97090.38;109135;1272;22524;-73
2024/03/07 07:41:24;;;;;;;45.80;27.60;;;;;;;0.38;100.00;97091.23;109086;1265;23372;-73
2024/03/07 07:44:03;;;;;;;48.10;27.40;;;;;;;0.41;100.00;97090.16;109082;1267;22519;-72
2024/03/07 07:46:37;;;;;;;51.20;29.70;;;;;;;0.39;100.00;97094.42;109201;1269;23822;-72
2024/03/07 07:49:08;;;;;;;44.80;24.70;;;;;;;0.36;99.89;97090.17;109154;1266;24371;-72
2024/03/07 07:51:43;;;;;;;50.40;26.40;;;;;;;0.36;99.81;97094.59;109125;1269;22476;-72
2024/03/07 07:54:17;;;;;;;44.80;26.20;;;;;;;0.34;99.89;97097.52;109052;1266;22596;-72
2024/03/07 07:56:51;;;;;;;48.70;29.30;;;;;;;0.37;99.92;97096.55;109100;1266;22557;-72
2024/03/07 07:59:29;;;;;;;51.60;28.80;;;;;;;0.38;99.94;97096.88;109170;1265;25976;-72
2024/03/07 08:02:06;;;;;;;50.30;27.00;;;;;;;0.39;99.96;97100.16;109152;1272;24247;-72
2024/03/07 08:04:42;;;;;;;49.00;27.60;;;;;;;0.38;99.91;97096.23;109126;1272;22571;-72
2024/03/07 08:07:15;;;;;;;43.10;25.40;;;;;;;0.40;99.97;97095.70;109130;1272;22629;-72
2024/03/07 08:09:52;;;;;;;50.20;27.00;;;;;;;0.38;99.88;97086.77;109128;1272;25544;-72
2024/03/07 08:12:30;;;;;;;48.40;27.20;;;;;;;0.36;99.78;97089.25;109110;1267;24551;-72
2024/03/07 08:15:06;;;;;;;50.80;28.90;;;;;;;0.37;99.94;97091.95;109095;1273;22540;-72
2024/03/07 08:17:39;;;;;;;46.20;26.70;;;;;;;0.38;99.95;97093.86;109091;1266;22826;-72
2024/03/07 08:20:13;;;;;;;43.10;25.70;;;;;;;0.39;99.95;97096.15;109100;1272;25444;-72
2024/03/07 08:22:46;;;;;;;44.20;25.00;;;;;;;0.37;99.91;97091.90;109195;1272;22720;-72
2024/03/07 08:25:20;;;;;;;48.20;26.90;;;;;;;0.38;100.00;97091.66;109160;1254;22553;-73
2024/03/07 08:27:53;;;;;;;51.60;28.10;;;;;;;0.39;99.91;97096.59;109137;1268;22524;-72
2024/03/07 08:30:28;;;;;;;44.20;26.50;;;;;;;0.38;99.89;97100.52;109103;1267;22511;-72
2024/03/07 08:33:05;;;;;;;44.00;23.50;;;;;;;0.38;99.90;97100.85;109189;1269;22463;-74
2024/03/07 08:35:36;;;;;;;44.30;25.10;;;;;;;0.37;99.58;97104.22;109149;1266;23247;-72
2024/03/07 08:38:12;;;;;;;45.30;26.00;;;;;;;0.34;99.70;97104.15;109076;1272;25250;-72
2024/03/07 08:40:44;;;;;;;46.40;26.70;;;;;;;0.34;99.87;97103.55;109179;1266;22519;-72
2024/03/07 08:43:15;;;;;;;42.70;25.10;;;;;;;0.33;99.85;97107.08;109088;1266;23196;-73
2024/03/07 08:45:48;;;;;;;47.40;26.70;;;;;;;0.31;99.76;97100.46;109149;1269;23614;-72
2024/03/07 08:48:19;;;;;;;44.50;26.60;;;;;;;0.30;99.55;97103.88;109128;1266;22557;-72
2024/03/07 08:50:52;;;;;;;49.30;27.00;;;;;;;0.32;99.88;97106.40;109142;1269;23782;-72
2024/03/07 08:53:26;;;;;;;45.60;25.10;;;;;;;0.36;99.96;97106.71;109139;1266;23165;-72
2024/03/07 08:55:58;;;;;;;41.70;26.60;;;;;;;0.35;99.91;97108.04;109110;1266;23304;-72
2024/03/07 08:58:32;;;;;;;49.60;28.30;;;;;;;0.34;99.69;97105.60;109117;1269;23808;-72
2024/03/07 09:01:06;;;;;;;45.80;27.20;;;;;;;0.30;99.58;97107.77;109155;1272;22529;-72
2024/03/07 09:03:39;;;;;;;48.00;28.40;;;;;;;0.28;99.63;97108.92;109136;1269;22542;-72
2024/03/07 09:06:15;;;;;;;50.10;29.40;;;;;;;0.29;99.68;97112.98;109118;1272;22510;-72
2024/03/07 09:08:46;;;;;;;54.30;30.40;;;;;;;0.29;99.82;97114.86;109130;1273;22520;-72
2024/03/07 09:11:20;;;;;;;44.30;25.60;;;;;;;0.27;99.87;97110.71;109117;1270;22505;-72
2024/03/07 09:13:53;;;;;;;46.80;26.60;;;;;;;0.26;99.72;97111.44;109091;1273;22465;-72
2024/03/07 09:16:25;;;;;;;46.30;28.00;;;;;;;0.25;99.94;97114.52;109123;1272;22511;-72
2024/03/07 09:18:58;;;;;;;50.00;29.20;;;;;;;0.26;99.80;97113.64;109120;1269;22470;-72
2024/03/07 09:21:33;;;;;;;48.40;27.20;;;;;;;0.29;99.87;97111.26;109129;1272;22647;-72
2024/03/07 09:24:07;;;;;;;47.70;27.90;;;;;;;0.30;99.99;97115.95;109128;1272;22998;-72
2024/03/07 09:26:42;;;;;;;51.40;28.30;;;;;;;0.31;99.94;97112.77;109076;1269;25335;-72
2024/03/07 09:29:14;;;;;;;47.10;25.60;;;;;;;0.31;99.94;97116.30;109110;1266;22605;-72
2024/03/07 09:31:47;;;;;;;41.70;23.80;;;;;;;0.33;99.94;97121.88;109136;1260;22566;-72
2024/03/07 09:34:24;;;;;;;43.70;26.60;;;;;;;0.34;99.92;97116.86;109135;1267;24127;-72
2024/03/07 09:37:01;;;;;;;47.90;29.80;;;;;;;0.35;99.87;97116.42;109098;1272;24105;-73
2024/03/07 09:39:35;;;;;;;46.80;27.00;;;;;;;0.35;99.93;97116.73;109165;1272;25516;-72
2024/03/07 09:42:10;;;;;;;46.90;26.60;;;;;;;0.37;99.99;97121.47;109147;1272;22506;-73
2024/03/07 09:44:46;;;;;;;48.80;26.40;;;;;;;0.37;99.90;97116.22;109104;1272;22511;-72
2024/03/07 09:47:18;;;;;;;37.40;22.60;;;;;;;0.41;99.97;97117.81;109139;1272;25603;-73
2024/03/07 09:49:51;;;;;;;46.90;26.50;;;;;;;0.37;99.95;97120.91;109087;1272;23292;-72
2024/03/07 09:52:23;;;;;;;44.90;26.00;;;;;;;0.30;99.81;97118.92;109117;1272;23845;-73
2024/03/07 09:54:54;;;;;;;40.00;24.30;;;;;;;0.33;99.88;97126.38;109091;1272;24408;-73
2024/03/07 09:57:27;;;;;;;40.60;26.00;;;;;;;0.36;99.97;97120.55;109173;1269;23085;-73
2024/03/07 10:00:02;;;;;;;48.10;28.40;;;;;;;0.37;99.97;97122.27;109207;1272;22508;-73
2024/03/07 10:02:41;;;;;;;42.20;24.60;;;;;;;0.40;100.00;97113.72;109207;1270;23051;-72
2024/03/07 10:05:25;;;;;;;42.80;24.70;;;;;;;0.42;99.96;97112.80;109082;1272;22483;-73
2024/03/07 10:08:00;;;;;;;38.10;25.10;;;;;;;0.44;99.99;97120.77;109115;1272;25236;-72
2024/03/07 10:10:31;;;;;;;44.70;24.50;;;;;;;0.42;99.80;97125.09;109153;1272;24181;-73
2024/03/07 10:13:02;;;;;;;43.60;26.80;;;;;;;0.46;99.96;97123.61;109125;1272;22512;-73
2024/03/07 10:15:39;;;;;;;42.00;24.70;;;;;;;0.50;100.00;97125.73;109107;1273;22540;-73
2024/03/07 10:18:13;;;;;;;41.10;24.40;;;;;;;0.52;99.98;97119.09;109125;1269;23252;-73
2024/03/07 10:20:48;;;;;;;42.80;23.70;;;;;;;0.54;99.92;97114.15;109118;1272;24155;-73
2024/03/07 10:23:22;;;;;;;44.20;26.20;;;;;;;0.56;100.00;97115.98;109079;1270;23572;-72
2024/03/07 10:25:56;;;;;;;43.10;24.10;;;;;;;0.55;99.89;97119.54;109139;1272;23769;-73
2024/03/07 10:28:33;;;;;;;38.80;24.40;;;;;;;0.51;99.85;97137.11;109127;1272;22524;-73
2024/03/07 10:31:11;;;;;;;40.70;24.30;;;;;;;0.48;99.61;97143.47;109144;1272;22653;-73
2024/03/07 10:33:51;;;;;;;35.60;23.30;;;;;;;0.41;99.40;97143.42;109078;1269;22531;-72
2024/03/07 10:36:22;;;;;;;42.90;25.30;;;;;;;0.34;99.59;97144.88;109094;1272;22909;-73
2024/03/07 10:38:55;;;;;;;40.20;24.10;;;;;;;0.34;99.90;97147.31;109153;1272;23293;-73
2024/03/07 10:41:36;;;;;;;31.10;19.80;;;;;;;0.38;99.93;97145.74;109129;1272;22541;-72
2024/03/07 10:44:15;;;;;;;40.20;23.20;;;;;;;0.35;99.89;97146.42;109089;1272;22613;-72
2024/03/07 10:46:52;;;;;;;32.10;20.40;;;;;;;0.38;99.95;97149.59;109089;1273;23051;-73
2024/03/07 10:49:33;;;;;;;40.10;24.40;;;;;;;0.37;99.83;97150.99;109150;1267;22519;-73
2024/03/07 10:52:20;;;;;;;38.10;24.30;;;;;;;0.30;99.47;97150.97;109084;1269;22520;-73
2024/03/07 10:55:10;;;;;;;39.10;25.00;;;;;;;0.26;99.76;97146.34;109047;1266;22558;-73
2024/03/07 10:57:53;;;;;;;34.90;21.60;;;;;;;0.23;99.68;97151.51;109156;1272;24228;-73
2024/03/07 11:00:35;;;;;;;34.40;21.50;;;;;;;0.24;99.86;97153.08;109248;1272;22552;-73
2024/03/07 11:03:11;;;;;;;48.30;27.70;;;;;;;0.25;99.76;97149.42;109144;1272;22462;-73
2024/03/07 11:05:44;;;;;;;40.00;24.50;;;;;;;0.29;100.00;97145.43;109163;1272;22483;-73
2024/03/07 11:08:16;;;;;;;35.40;21.50;;;;;;;0.32;99.96;97144.07;109107;1272;22644;-73
2024/03/07 11:10:54;;;;;;;37.30;21.60;;;;;;;0.32;99.82;97148.13;109170;1266;25252;-72
2024/03/07 11:13:29;;;;;;;37.90;23.70;;;;;;;0.29;99.81;97148.45;109135;1272;22537;-73
2024/03/07 11:16:04;;;;;;;38.90;23.60;;;;;;;0.31;99.97;97154.50;109089;1270;22514;-73
2024/03/07 11:18:36;;;;;;;49.40;27.50;;;;;;;0.28;99.91;97155.63;109127;1268;23802;-73
2024/03/07 11:21:30;;;;;;;43.60;27.00;;;;;;;0.26;99.73;97162.75;109119;1270;22534;-73
2024/03/07 11:24:05;;;;;;;41.80;25.50;;;;;;;0.25;99.87;97158.38;109119;1266;22572;-73
2024/03/07 11:26:36;;;;;;;41.80;25.80;;;;;;;0.28;99.99;97157.93;109165;1272;25268;-72
2024/03/07 11:29:46;;;;;;;46.20;28.40;;;;;;;0.30;99.96;97151.94;109174;1272;23673;-73
2024/03/07 11:32:20;;;;;;;46.70;29.00;;;;;;;0.34;100.00;97149.40;109116;1272;23253;-72
2024/03/07 11:35:00;;;;;;;48.10;28.00;;;;;;;0.36;100.00;97149.20;109102;1272;22514;-73
2024/03/07 11:37:47;;;;;;;43.30;27.80;;;;;;;0.38;99.99;97146.67;109112;1272;22541;-73
2024/03/07 11:40:51;;;;;;;42.00;26.70;;;;;;;0.43;100.00;97148.20;109105;1272;22719;-73
2024/03/07 11:43:31;;;;;;;41.90;27.30;;;;;;;0.45;100.00;97149.81;109113;1267;24699;-72
2024/03/07 11:46:11;;;;;;;45.80;29.10;;;;;;;0.47;100.00;97142.35;109192;1267;22545;-73
2024/03/07 11:48:44;;;;;;;47.80;27.10;;;;;;;0.52;100.00;97145.55;109077;1272;24136;-73
2024/03/07 11:51:21;;;;;;;43.90;27.30;;;;;;;0.56;100.00;97143.52;109073;1272;24192;-73
2024/03/07 11:53:57;;;;;;;43.00;26.50;;;;;;;0.58;100.00;97139.22;109132;1272;22506;-73